Airfield :
LOGIN :

Register | Disclaimer

   EN    FR    IT 

 










Legend :    VFR   Marginal VFR   IFR   Intensive IFR   Very Intensive IFR
Visi :
Ceiling :
>= 8 km
>= 3000ft
5 to 8 km
1000 to 3000 ft
1500m to 5 km
500 to 1000 ft
800 to 1500m
200 to 500 ft
< 800m
< 200 ft
Symbols :   Thunderstorms  Fog  Heavy snow  Heavy precipitations  Wind > 20 kt
SIGMETs :     Misc.  Thunderstorms  Icing  Turbulence  Mountain Waves  Volcanic Ashes






- Airport Elevation : 40 ft
- IATA code : RMI


LIPR - Federico Fellini Int. Rimini

CURRENT METAR :
  • 040020Z AUTO VRB02KT 9999 NCD 23/15 Q1015

EXPIRED METARs :
  • 032350Z AUTO 23002KT 9999 NCD 23/16 Q1015
  • 031520Z 11009KT CAVOK 30/21 Q1015
  • 032320Z AUTO VRB01KT 9999 NCD 24/15 Q1015
  • 032220Z AUTO VRB01KT 9999 NCD 24/15 Q1015
  • 032150Z AUTO 20005KT 9999 NCD 26/15 Q1015

TAF TAF LIPR
Valid from the 04 at 00:00 until the 05 at 00:00 UTC


032300Z 0400/0424 VRB05KT CAVOK
BECMG 0408/0410 07010KT



MET'MAP, your aeronautical weather chart ! - Copyright ORBIFLY December 2007 - Disclaimer

ORBIFLY MET'MAP TEAM :

Programming & Development : Alexandra Zaïnal
Original concept : Baudouin d'Aumeries
Technical & hardware support : Manuel Goepfert
Assistance : Marc-Olivier Méhu




SOURCES & CREDITS :

   NOAA